Time;durP1;ratioP1;P1;durP2;ratioP2;P2;SDS_P1;SDS_P2;PMS_P1;PMS_P2;Temp;Humidity;BMP_temperature;BMP_pressure;BME280_temperature;BME280_humidity;BME280_pressure;Samples;Min_cycle;Max_cycle;Signal;HPM_P1;HPM_P2
2022/01/26 00:05:44;;;;;;;16.35;10.75;;;;;;;0.47;100.00;98318.25;1719988;81;22264;-64
2022/01/26 00:06:04;;;;;;;15.03;10.32;;;;;;;0.47;100.00;98323.52;1728381;81;20978;-65
2022/01/26 00:08:26;;;;;;;13.03;9.95;;;;;;;0.48;100.00;98323.80;1721123;81;21097;-64
2022/01/26 00:10:52;;;;;;;15.43;10.50;;;;;;;0.49;100.00;98322.79;1726244;81;20891;-65
2022/01/26 00:13:20;;;;;;;15.90;11.08;;;;;;;0.52;100.00;98327.60;1706937;82;21130;-62
2022/01/26 00:15:47;;;;;;;14.98;10.30;;;;;;;0.53;100.00;98323.45;1714888;82;21438;-64
2022/01/26 00:18:15;;;;;;;18.70;11.50;;;;;;;0.55;100.00;98327.17;1728084;80;21032;-64
2022/01/26 00:20:51;;;;;;;13.35;10.32;;;;;;;0.54;100.00;98323.73;1735823;81;20977;-62
2022/01/26 00:23:49;;;;;;;15.78;10.20;;;;;;;0.57;100.00;98333.03;1721504;81;20994;-65
2022/01/26 00:38:54;;;;;;;12.58;9.43;;;;;;;0.57;100.00;98337.80;1720527;81;21127;-66
2022/01/26 00:41:33;;;;;;;13.72;9.63;;;;;;;0.56;100.00;98336.71;1734247;81;21593;-60
2022/01/26 00:43:56;;;;;;;17.23;9.63;;;;;;;0.56;100.00;98336.20;1733146;81;20949;-64
2022/01/26 00:46:20;;;;;;;16.02;9.83;;;;;;;0.53;100.00;98333.19;1722722;80;20934;-62
2022/01/26 00:48:49;;;;;;;14.30;10.20;;;;;;;0.53;100.00;98331.86;1733537;81;20907;-64
2022/01/26 00:51:19;;;;;;;15.03;10.20;;;;;;;0.53;100.00;98326.59;1730740;81;21185;-62
2022/01/26 00:53:48;;;;;;;13.03;9.90;;;;;;;0.52;100.00;98329.73;1688022;83;21021;-65
2022/01/26 00:56:16;;;;;;;16.97;10.05;;;;;;;0.52;100.00;98324.97;1679715;83;21033;-61
2022/01/26 00:58:44;;;;;;;21.50;11.28;;;;;;;0.51;100.00;98329.96;1725850;81;21111;-60
2022/01/26 01:01:11;;;;;;;18.25;11.22;;;;;;;0.49;100.00;98332.02;1742833;81;21009;-61
2022/01/26 01:03:41;;;;;;;14.80;11.15;;;;;;;0.47;100.00;98330.11;1731257;81;21139;-64
2022/01/26 01:11:17;;;;;;;13.95;10.40;;;;;;;0.47;100.00;98334.06;1722545;81;21160;-62
2022/01/26 01:13:44;;;;;;;16.15;10.90;;;;;;;0.48;100.00;98329.07;1729966;80;21183;-60
2022/01/26 01:16:17;;;;;;;13.15;10.58;;;;;;;0.48;100.00;98322.48;1726290;81;21441;-64
2022/01/26 01:19:03;;;;;;;13.13;9.63;;;;;;;0.47;100.00;98324.84;1728723;82;21073;-64
2022/01/26 01:29:13;;;;;;;13.35;9.80;;;;;;;0.51;100.00;98311.00;1725442;80;21126;-63
2022/01/26 01:34:12;;;;;;;12.50;9.98;;;;;;;0.52;100.00;98312.60;1707335;81;24924;-63
2022/01/26 01:36:42;;;;;;;19.95;10.43;;;;;;;0.56;100.00;98309.03;1728203;81;20926;-66
2022/01/26 01:39:09;;;;;;;11.88;9.03;;;;;;;0.60;100.00;98314.16;1709918;82;21447;-65
2022/01/26 01:41:37;;;;;;;12.88;8.80;;;;;;;0.59;100.00;98306.75;1716404;82;21142;-63
2022/01/26 01:44:05;;;;;;;15.58;9.48;;;;;;;0.59;100.00;98303.30;1719754;82;20893;-66
2022/01/26 01:46:32;;;;;;;24.45;9.98;;;;;;;0.53;100.00;98297.60;1727122;81;21025;-60
2022/01/26 01:48:59;;;;;;;12.35;9.00;;;;;;;0.50;100.00;98300.66;1708569;81;21606;-61
2022/01/26 01:51:34;;;;;;;9.88;8.70;;;;;;;0.49;100.00;98297.75;1718446;81;21051;-59
2022/01/26 01:53:55;;;;;;;15.00;9.98;;;;;;;0.48;100.00;98304.84;1725634;80;21132;-65
2022/01/26 01:56:27;;;;;;;15.75;9.65;;;;;;;0.46;100.00;98304.77;1728892;81;20862;-63
2022/01/26 01:58:51;;;;;;;12.95;9.95;;;;;;;0.45;100.00;98301.83;1738615;81;21021;-61
2022/01/26 02:01:18;;;;;;;11.28;9.23;;;;;;;0.45;100.00;98301.83;1686698;82;20977;-65
2022/01/26 02:03:44;;;;;;;13.22;9.33;;;;;;;0.43;100.00;98303.38;1697720;82;20930;-65
2022/01/26 02:06:11;;;;;;;14.70;10.43;;;;;;;0.42;100.00;98298.33;1737773;82;21130;-65
2022/01/26 02:08:41;;;;;;;11.65;8.93;;;;;;;0.40;100.00;98299.06;1728578;81;20913;-63
2022/01/26 02:11:11;;;;;;;11.95;8.83;;;;;;;0.44;100.00;98302.86;1738798;81;21021;-62
2022/01/26 02:16:29;;;;;;;13.53;9.65;;;;;;;0.48;100.00;98304.03;1717368;82;21443;-61
2022/01/26 02:19:37;;;;;;;10.55;8.80;;;;;;;0.52;100.00;98299.42;1718207;81;21130;-62
2022/01/26 02:21:58;;;;;;;11.65;8.65;;;;;;;0.54;100.00;98301.86;1690155;82;21011;-62
2022/01/26 02:54:36;;;;;;;9.35;6.55;;;;;;;0.57;100.00;98319.85;1731712;80;20886;-64
2022/01/26 03:01:50;;;;;;;8.38;6.17;;;;;;;0.56;100.00;98324.34;1724017;82;20987;-63
2022/01/26 03:04:22;;;;;;;8.50;6.47;;;;;;;0.62;100.00;98323.96;1725093;81;21028;-63
2022/01/26 03:06:49;;;;;;;8.38;7.12;;;;;;;0.62;100.00;98322.64;1716123;82;21013;-63
2022/01/26 03:09:13;;;;;;;10.28;7.62;;;;;;;0.56;100.00;98317.75;1734263;82;21118;-59
2022/01/26 03:11:40;;;;;;;8.75;6.78;;;;;;;0.54;100.00;98323.73;1727306;80;21560;-61
2022/01/26 03:16:56;;;;;;;7.42;6.15;;;;;;;0.53;100.00;98316.05;1724388;82;20956;-62
2022/01/26 03:19:22;;;;;;;7.22;5.95;;;;;;;0.52;100.00;98325.78;1731878;82;21534;-62
2022/01/26 03:29:59;;;;;;;7.20;5.67;;;;;;;0.58;100.00;98322.80;1733099;82;21512;-61
2022/01/26 03:34:57;;;;;;;6.67;5.62;;;;;;;0.57;100.00;98320.66;1734937;82;21006;-63
2022/01/26 03:37:30;;;;;;;7.75;5.95;;;;;;;0.57;100.00;98315.90;1729399;81;21138;-62
2022/01/26 03:39:53;;;;;;;7.12;6.00;;;;;;;0.59;100.00;98327.03;1730510;82;20950;-60
2022/01/26 03:42:19;;;;;;;6.92;5.78;;;;;;;0.59;100.00;98325.70;1722028;81;21383;-60
2022/01/26 03:44:47;;;;;;;7.47;5.87;;;;;;;0.60;100.00;98322.06;1720726;82;20937;-58
2022/01/26 03:47:14;;;;;;;7.25;5.50;;;;;;;0.61;100.00;98323.69;1719475;82;20899;-61
2022/01/26 03:49:41;;;;;;;7.10;5.35;;;;;;;0.59;100.00;98321.75;1716362;82;21750;-58
2022/01/26 03:52:08;;;;;;;7.25;5.95;;;;;;;0.58;100.00;98333.34;1718248;82;20986;-62
2022/01/26 03:54:35;;;;;;;8.35;6.47;;;;;;;0.59;100.00;98330.98;1713651;81;21013;-57
2022/01/26 03:57:02;;;;;;;7.92;6.15;;;;;;;0.62;100.00;98327.41;1724894;81;21427;-57
2022/01/26 03:59:29;;;;;;;6.97;5.80;;;;;;;0.64;100.00;98323.23;1734948;82;20906;-58
2022/01/26 04:01:56;;;;;;;8.53;5.97;;;;;;;0.66;100.00;98333.03;1721462;82;21482;-57
2022/01/26 04:04:23;;;;;;;8.53;6.92;;;;;;;0.66;99.96;98327.26;1734142;82;21056;-63
2022/01/26 04:06:50;;;;;;;9.23;6.97;;;;;;;0.63;99.93;98323.77;1710719;82;21022;-61
2022/01/26 04:09:18;;;;;;;10.85;7.80;;;;;;;0.61;99.94;98320.52;1721019;81;21091;-59
2022/01/26 04:11:48;;;;;;;8.25;6.60;;;;;;;0.64;99.89;98327.18;1710513;81;20966;-62
2022/01/26 04:14:17;;;;;;;10.20;7.55;;;;;;;0.63;99.75;98327.72;1730750;81;21907;-63
2022/01/26 04:16:44;;;;;;;9.65;7.40;;;;;;;0.62;99.75;98321.33;1717898;81;20930;-64
2022/01/26 04:19:11;;;;;;;10.40;7.85;;;;;;;0.64;99.79;98335.09;1717997;81;20911;-63
2022/01/26 04:21:52;;;;;;;9.70;7.08;;;;;;;0.64;99.78;98322.72;1734729;82;21426;-64
2022/01/26 04:24:26;;;;;;;7.75;6.60;;;;;;;0.67;99.69;98326.75;1725765;82;20998;-56
2022/01/26 04:29:28;;;;;;;8.55;6.75;;;;;;;0.72;99.44;98332.69;1721073;82;21039;-58
2022/01/26 04:31:53;;;;;;;9.63;7.42;;;;;;;0.68;99.39;98332.33;1725131;81;20958;-59
2022/01/26 04:34:20;;;;;;;13.05;7.03;;;;;;;0.64;99.29;98327.18;1737123;82;20902;-60
2022/01/26 04:36:55;;;;;;;8.40;6.62;;;;;;;0.58;99.32;98329.39;1732275;82;21555;-57
2022/01/26 04:39:20;;;;;;;8.68;7.15;;;;;;;0.57;99.49;98335.16;1709342;82;21127;-58
2022/01/26 04:41:56;;;;;;;8.50;7.03;;;;;;;0.59;99.54;98324.39;1723618;82;20970;-63
2022/01/26 04:44:27;;;;;;;9.68;7.55;;;;;;;0.60;99.48;98324.70;1735798;82;21038;-64
2022/01/26 04:46:48;;;;;;;9.50;7.37;;;;;;;0.61;99.39;98326.32;1711068;82;21543;-58
2022/01/26 04:49:15;;;;;;;8.38;6.62;;;;;;;0.60;99.34;98329.97;1724281;82;20866;-61
2022/01/26 04:51:42;;;;;;;8.98;6.72;;;;;;;0.58;99.34;98330.70;1741166;82;21115;-61
2022/01/26 04:54:10;;;;;;;9.15;7.00;;;;;;;0.57;99.40;98333.84;1728101;82;20934;-58
2022/01/26 04:56:36;;;;;;;9.03;7.30;;;;;;;0.58;99.40;98338.61;1724350;82;20915;-57
2022/01/26 04:59:03;;;;;;;9.68;7.15;;;;;;;0.59;99.37;98338.38;1710450;83;20895;-59
2022/01/26 05:01:30;;;;;;;8.93;6.90;;;;;;;0.62;99.32;98338.46;1717061;81;20902;-62
2022/01/26 05:03:57;;;;;;;10.95;6.92;;;;;;;0.62;99.26;98337.14;1736970;82;21131;-63
2022/01/26 05:06:23;;;;;;;9.65;7.25;;;;;;;0.63;99.22;98332.98;1723384;82;20987;-61
2022/01/26 05:08:50;;;;;;;9.58;7.35;;;;;;;0.63;99.18;98338.77;1732501;82;20921;-63
2022/01/26 05:11:30;;;;;;;8.58;6.90;;;;;;;0.62;99.15;98335.83;1717485;82;20946;-62
2022/01/26 05:13:46;;;;;;;9.95;6.92;;;;;;;0.63;99.12;98333.49;1727626;81;21123;-63
2022/01/26 05:16:13;;;;;;;9.90;7.40;;;;;;;0.64;99.10;98328.50;1718988;81;21130;-63
2022/01/26 05:18:40;;;;;;;8.63;7.40;;;;;;;0.65;99.04;98335.39;1709673;83;21119;-58
2022/01/26 05:21:07;;;;;;;10.98;7.87;;;;;;;0.65;99.03;98329.62;1726903;81;21454;-63
2022/01/26 05:23:34;;;;;;;9.50;7.12;;;;;;;0.67;99.01;98332.84;1739059;82;20937;-62
2022/01/26 05:26:00;;;;;;;8.33;6.87;;;;;;;0.70;98.87;98330.28;1716020;82;21002;-61
2022/01/26 05:28:27;;;;;;;7.72;6.67;;;;;;;0.73;98.87;98330.36;1734225;82;21127;-63
2022/01/26 05:30:54;;;;;;;10.63;8.00;;;;;;;0.75;98.72;98334.89;1732221;82;20910;-64
2022/01/26 05:33:23;;;;;;;9.73;7.58;;;;;;;0.71;98.56;98341.10;1719013;81;20946;-63
2022/01/26 05:35:51;;;;;;;9.68;6.35;;;;;;;0.67;98.56;98337.30;1735424;82;20941;-64
2022/01/26 05:38:17;;;;;;;8.70;7.20;;;;;;;0.65;98.70;98335.39;1724607;81;20961;-59
2022/01/26 05:40:44;;;;;;;9.43;6.78;;;;;;;0.66;98.67;98339.63;1722163;81;21790;-60
2022/01/26 05:43:11;;;;;;;8.48;7.28;;;;;;;0.66;98.67;98336.48;1726375;81;21016;-58
2022/01/26 05:45:39;;;;;;;9.53;7.15;;;;;;;0.67;98.54;98335.98;1717168;82;21058;-59
2022/01/26 05:48:11;;;;;;;8.80;6.25;;;;;;;0.65;98.35;98338.03;1734010;82;20958;-63
2022/01/26 05:50:37;;;;;;;8.80;5.83;;;;;;;0.62;98.36;98346.37;1710538;81;20986;-63
2022/01/26 05:53:04;;;;;;;8.65;6.37;;;;;;;0.60;98.33;98340.52;1738529;82;21185;-61
2022/01/26 05:55:31;;;;;;;7.42;6.15;;;;;;;0.60;98.31;98340.01;1740533;82;21003;-62
2022/01/26 05:57:59;;;;;;;7.97;6.40;;;;;;;0.58;98.26;98339.93;1685498;81;20877;-59
2022/01/26 06:00:27;;;;;;;8.28;6.20;;;;;;;0.57;98.21;98344.39;1717055;82;21044;-61
2022/01/26 06:02:53;;;;;;;8.60;6.53;;;;;;;0.56;98.19;98346.75;1711081;82;20918;-59
2022/01/26 06:05:20;;;;;;;9.35;7.22;;;;;;;0.56;98.17;98345.94;1733316;82;21115;-59
2022/01/26 06:07:47;;;;;;;9.65;7.20;;;;;;;0.56;98.19;98343.30;1682403;84;20997;-59
2022/01/26 06:10:14;;;;;;;10.80;7.53;;;;;;;0.55;98.12;98341.67;1721300;81;20971;-59
2022/01/26 06:12:42;;;;;;;8.95;6.60;;;;;;;0.57;97.99;98346.22;1722842;81;20916;-58
2022/01/26 06:15:10;;;;;;;8.33;7.03;;;;;;;0.57;97.83;98340.94;1716158;81;20950;-60
2022/01/26 06:17:37;;;;;;;10.05;7.72;;;;;;;0.55;97.87;98346.95;1728928;81;21522;-60
2022/01/26 06:20:06;;;;;;;10.90;8.58;;;;;;;0.56;97.85;98349.89;1710615;81;21061;-61
2022/01/26 06:22:33;;;;;;;11.00;7.87;;;;;;;0.57;97.72;98356.75;1726904;82;21547;-60
2022/01/26 06:25:05;;;;;;;9.58;6.92;;;;;;;0.58;97.75;98351.80;1739630;81;20941;-61
2022/01/26 06:27:28;;;;;;;11.97;7.78;;;;;;;0.58;97.65;98355.23;1718100;82;20966;-58
2022/01/26 06:29:55;;;;;;;11.03;7.37;;;;;;;0.61;97.56;98360.59;1713468;81;21157;-60
2022/01/26 06:32:22;;;;;;;11.75;7.70;;;;;;;0.62;97.52;98362.19;1720984;81;20927;-57
2022/01/26 06:34:49;;;;;;;10.68;7.50;;;;;;;0.61;97.41;98359.27;1716162;81;21202;-59
2022/01/26 06:37:16;;;;;;;9.85;7.22;;;;;;;0.60;97.33;98360.28;1720963;81;20851;-57
2022/01/26 06:39:43;;;;;;;9.80;7.53;;;;;;;0.61;97.23;98357.95;1716191;82;20942;-60
2022/01/26 06:42:14;;;;;;;12.20;7.72;;;;;;;0.57;97.20;98360.20;1724500;81;21749;-62
2022/01/26 06:44:51;;;;;;;10.60;7.47;;;;;;;0.59;97.18;98363.93;1723693;82;20986;-57
2022/01/26 06:49:39;;;;;;;12.10;8.43;;;;;;;0.64;97.06;98372.00;1737901;82;20930;-58
2022/01/26 06:52:07;;;;;;;10.65;7.85;;;;;;;0.65;96.89;98373.62;1728948;82;21432;-62
2022/01/26 06:54:34;;;;;;;11.45;8.00;;;;;;;0.67;96.84;98368.94;1735650;81;21758;-61
2022/01/26 06:57:00;;;;;;;10.98;7.80;;;;;;;0.69;96.70;98369.02;1734145;82;20933;-58
2022/01/26 06:59:27;;;;;;;10.50;7.87;;;;;;;0.72;96.67;98359.05;1720589;82;20950;-58
2022/01/26 07:01:54;;;;;;;9.70;7.30;;;;;;;0.76;96.54;98361.03;1668332;84;21080;-58
2022/01/26 07:04:20;;;;;;;159.12;25.43;;;;;;;0.78;96.38;98362.94;1675846;83;21260;-59
2022/01/26 07:06:47;;;;;;;9.23;7.28;;;;;;;0.78;95.88;98370.84;1698212;83;22430;-60
2022/01/26 07:09:16;;;;;;;11.88;8.25;;;;;;;0.75;95.69;98369.98;1668590;83;20988;-60
2022/01/26 07:11:45;;;;;;;11.70;8.18;;;;;;;0.73;95.67;98379.91;1681065;84;21141;-60
2022/01/26 07:14:21;;;;;;;10.20;8.25;;;;;;;0.72;95.58;98378.32;1679994;82;21087;-62
2022/01/26 07:22:11;;;;;;;10.88;8.10;;;;;;;0.78;95.32;98377.44;1697396;82;21134;-58
2022/01/26 07:24:38;;;;;;;8.55;6.85;;;;;;;0.80;95.17;98374.06;1707669;82;21027;-59
2022/01/26 07:27:06;;;;;;;249.25;46.90;;;;;;;0.84;94.96;98380.53;1701713;81;20959;-58
2022/01/26 07:29:34;;;;;;;9.88;7.25;;;;;;;0.88;94.87;98384.34;1703429;81;21020;-58
2022/01/26 07:32:04;;;;;;;9.30;7.10;;;;;;;0.92;94.69;98390.00;1684490;83;21120;-62
2022/01/26 07:34:30;;;;;;;13.40;7.45;;;;;;;0.92;94.53;98379.45;1732484;81;20942;-59
2022/01/26 07:37:02;;;;;;;160.55;17.12;;;;;;;0.90;94.04;98384.92;1711405;82;20947;-63
2022/01/26 07:39:41;;;;;;;8.05;6.35;;;;;;;0.88;93.89;98388.30;1721683;80;21127;-59
2022/01/26 07:41:58;;;;;;;8.53;6.60;;;;;;;0.90;93.57;98388.88;1733616;80;21023;-58
2022/01/26 07:44:25;;;;;;;9.38;7.17;;;;;;;0.91;93.16;98390.50;1744405;80;21183;-57
2022/01/26 07:46:52;;;;;;;8.50;6.70;;;;;;;0.90;93.12;98391.52;1717745;80;21145;-59
2022/01/26 07:49:25;;;;;;;167.85;20.02;;;;;;;0.90;92.67;98394.66;1671477;79;21002;-59
2022/01/26 07:51:52;;;;;;;193.70;30.25;;;;;;;0.87;92.51;98388.52;1707164;81;21608;-57
2022/01/26 07:54:21;;;;;;;8.90;6.33;;;;;;;0.85;92.21;98391.36;1702900;82;21070;-58
2022/01/26 07:56:49;;;;;;;9.68;6.70;;;;;;;0.85;92.24;98394.00;1705487;83;21737;-61
2022/01/26 07:59:16;;;;;;;9.90;6.53;;;;;;;0.89;92.10;98395.20;1694470;82;20881;-58
2022/01/26 08:01:43;;;;;;;11.20;7.55;;;;;;;0.90;91.67;98395.47;1706226;81;21084;-58
2022/01/26 08:04:09;;;;;;;91.50;23.00;;;;;;;0.91;91.35;98394.46;1713922;81;21141;-58
2022/01/26 08:06:38;;;;;;;101.00;20.32;;;;;;;0.91;90.80;98399.73;1704962;80;21040;-60
2022/01/26 08:09:05;;;;;;;8.28;6.15;;;;;;;0.87;90.40;98390.66;1717115;81;21495;-58
2022/01/26 08:11:32;;;;;;;8.43;6.47;;;;;;;0.85;90.48;98397.17;1686640;82;20949;-61
2022/01/26 08:13:58;;;;;;;7.35;6.08;;;;;;;0.85;90.39;98394.53;1691791;83;21047;-60
2022/01/26 08:16:25;;;;;;;61.08;21.95;;;;;;;0.89;90.19;98399.16;1661517;84;21020;-60
2022/01/26 08:18:52;;;;;;;6.37;4.62;;;;;;;0.89;89.19;98403.11;1665575;84;21004;-60
2022/01/26 08:21:19;;;;;;;5.30;4.17;;;;;;;0.88;89.22;98406.75;1658844;85;21097;-59
2022/01/26 08:23:47;;;;;;;4.62;3.70;;;;;;;0.88;89.27;98413.35;1680657;85;21901;-62
2022/01/26 08:26:19;;;;;;;5.95;4.42;;;;;;;0.89;89.19;98416.30;1678945;82;21512;-59
2022/01/26 08:28:50;;;;;;;8.20;5.92;;;;;;;0.89;88.56;98405.74;1690347;82;21191;-59
2022/01/26 08:31:13;;;;;;;9.65;5.47;;;;;;;0.87;88.56;98406.48;1693773;83;21026;-63
2022/01/26 08:33:40;;;;;;;6.08;4.10;;;;;;;0.88;88.46;98409.39;1686359;82;21088;-61
2022/01/26 08:36:07;;;;;;;7.05;4.30;;;;;;;0.85;88.21;98411.14;1677145;83;21075;-64
2022/01/26 08:38:34;;;;;;;8.78;5.28;;;;;;;0.84;88.04;98408.23;1648308;85;21444;-58
2022/01/26 08:41:01;;;;;;;9.28;4.85;;;;;;;0.84;88.07;98413.50;1689114;82;20956;-60
2022/01/26 08:43:28;;;;;;;7.47;4.22;;;;;;;0.84;87.80;98411.37;1682741;82;21616;-58
2022/01/26 08:45:55;;;;;;;7.17;4.65;;;;;;;0.86;87.79;98412.77;1692972;82;21221;-60
2022/01/26 08:48:22;;;;;;;6.35;4.55;;;;;;;0.92;87.83;98418.48;1708773;82;20921;-63
2022/01/26 08:50:50;;;;;;;6.08;4.00;;;;;;;0.98;87.90;98414.17;1718863;81;20979;-61
2022/01/26 08:53:16;;;;;;;9.63;5.05;;;;;;;1.02;87.27;98414.83;1708390;82;20932;-63
2022/01/26 08:55:43;;;;;;;8.98;4.67;;;;;;;1.00;86.95;98410.29;1683111;83;21070;-60
2022/01/26 08:58:10;;;;;;;7.37;4.70;;;;;;;1.01;86.87;98411.91;1682432;83;21149;-59
2022/01/26 09:00:39;;;;;;;5.62;3.90;;;;;;;1.05;86.77;98414.40;1706231;82;21046;-61
2022/01/26 09:03:06;;;;;;;26.35;16.32;;;;;;;1.07;86.22;98411.02;1687288;82;21101;-58
2022/01/26 09:05:33;;;;;;;5.53;3.83;;;;;;;1.05;86.60;98414.91;1679460;84;20947;-64
2022/01/26 09:08:00;;;;;;;5.65;3.90;;;;;;;1.08;86.87;98415.29;1632161;84;21509;-61
2022/01/26 09:10:29;;;;;;;5.85;3.80;;;;;;;1.15;86.83;98416.02;1655458;84;21096;-63
2022/01/26 09:12:56;;;;;;;5.90;4.65;;;;;;;1.22;86.80;98418.59;1691735;82;20874;-62
2022/01/26 09:15:30;;;;;;;7.15;4.80;;;;;;;1.21;86.12;98408.53;1685531;83;20940;-63
2022/01/26 09:17:59;;;;;;;36.83;10.75;;;;;;;1.20;86.23;98414.83;1704020;82;20919;-64
2022/01/26 09:20:26;;;;;;;11.35;7.47;;;;;;;1.21;86.19;98411.17;1713341;81;21027;-59
2022/01/26 09:22:52;;;;;;;7.80;5.65;;;;;;;1.26;86.33;98413.97;1683892;81;21139;-57
2022/01/26 09:25:19;;;;;;;7.30;5.15;;;;;;;1.27;86.33;98414.77;1708973;81;20976;-65
2022/01/26 09:27:46;;;;;;;8.40;5.35;;;;;;;1.29;86.23;98410.08;1702711;82;21249;-59
2022/01/26 09:30:13;;;;;;;8.78;6.05;;;;;;;1.27;86.27;98418.20;1693988;82;21035;-60
2022/01/26 09:32:42;;;;;;;7.47;5.00;;;;;;;1.28;86.26;98413.23;1696521;81;21162;-62
2022/01/26 09:35:09;;;;;;;5.85;4.37;;;;;;;1.30;86.29;98419.09;1720107;82;21107;-62
2022/01/26 09:37:36;;;;;;;6.28;4.65;;;;;;;1.32;85.96;98419.66;1699253;82;20976;-60
2022/01/26 09:40:05;;;;;;;6.28;4.22;;;;;;;1.28;86.08;98422.46;1704464;82;21050;-59
2022/01/26 09:42:34;;;;;;;1074.28;552.52;;;;;;;1.25;86.01;98422.89;1697212;82;21567;-60
2022/01/26 09:45:02;;;;;;;82.22;36.20;;;;;;;1.24;86.04;98419.16;1706735;82;22233;-59
2022/01/26 09:47:29;;;;;;;203.58;34.27;;;;;;;1.23;86.14;98413.08;1711725;82;21147;-56
2022/01/26 09:49:56;;;;;;;6.58;4.20;;;;;;;1.24;86.10;98417.34;1708432;81;21583;-58
2022/01/26 09:52:32;;;;;;;6.30;4.60;;;;;;;1.25;86.14;98415.48;1705318;80;21141;-62
2022/01/26 09:54:54;;;;;;;111.55;15.10;;;;;;;1.24;86.06;98416.02;1702201;82;20937;-58
2022/01/26 09:57:21;;;;;;;5.85;4.20;;;;;;;1.24;86.16;98414.70;1689145;83;21104;-64
2022/01/26 09:59:48;;;;;;;6.72;5.15;;;;;;;1.24;86.02;98413.38;1686455;83;21719;-64
2022/01/26 10:02:28;;;;;;;170.55;46.37;;;;;;;1.22;86.02;98415.44;1688222;82;20954;-61
2022/01/26 10:05:01;;;;;;;6.92;5.25;;;;;;;1.21;85.86;98411.17;1697731;81;20940;-62
2022/01/26 10:07:45;;;;;;;57.53;52.67;;;;;;;1.16;85.95;98420.26;1702979;81;20908;-59
2022/01/26 10:15:34;;;;;;;8.73;7.05;;;;;;;1.16;86.12;98413.66;1696192;83;21042;-66
2022/01/26 10:18:07;;;;;;;9.88;6.62;;;;;;;1.24;86.11;98413.38;1684940;82;22184;-60
2022/01/26 10:20:50;;;;;;;7.47;5.25;;;;;;;1.32;86.04;98406.47;1695433;82;20923;-56
2022/01/26 10:23:20;;;;;;;7.20;5.53;;;;;;;1.39;85.76;98406.38;1698504;82;21018;-62
2022/01/26 10:26:01;;;;;;;96.60;11.15;;;;;;;1.43;85.70;98413.36;1698496;82;21699;-61
2022/01/26 10:28:50;;;;;;;7.30;5.37;;;;;;;1.48;85.56;98410.87;1691832;81;21014;-59
2022/01/26 10:31:24;;;;;;;9.05;6.90;;;;;;;1.45;85.22;98411.30;1690490;82;20909;-60
2022/01/26 10:33:59;;;;;;;13.95;9.13;;;;;;;1.45;85.30;98408.66;1687107;82;22852;-59
2022/01/26 10:36:47;;;;;;;95.72;43.85;;;;;;;1.54;85.33;98401.54;1691435;82;20965;-59
2022/01/26 10:41:53;;;;;;;7.62;5.03;;;;;;;1.53;84.41;98404.41;1650009;83;21944;-60
2022/01/26 10:44:29;;;;;;;6.55;5.53;;;;;;;1.55;84.38;98403.67;1677185;82;21141;-63
2022/01/26 10:47:00;;;;;;;6.37;4.47;;;;;;;1.51;83.66;98401.97;1673256;83;21101;-63
2022/01/26 10:52:37;;;;;;;7.45;4.20;;;;;;;1.44;83.64;98398.61;1689371;82;21171;-63
2022/01/26 10:55:06;;;;;;;6.08;4.20;;;;;;;1.42;83.61;98399.35;1698539;82;20898;-63
2022/01/26 10:57:35;;;;;;;6.15;4.30;;;;;;;1.45;83.54;98396.28;1683359;83;20923;-62
2022/01/26 11:00:04;;;;;;;6.42;4.12;;;;;;;1.49;83.46;98393.48;1649956;85;21070;-61
2022/01/26 11:02:33;;;;;;;5.78;4.28;;;;;;;1.58;83.31;98392.67;1655701;84;21122;-58
2022/01/26 11:05:00;;;;;;;5.72;4.30;;;;;;;1.59;82.79;98384.52;1674862;82;21216;-61
2022/01/26 11:07:44;;;;;;;6.20;4.55;;;;;;;1.60;82.52;98382.16;1702554;82;20983;-58
2022/01/26 11:10:09;;;;;;;7.15;4.33;;;;;;;1.57;82.49;98376.53;1689142;83;20967;-57
2022/01/26 11:12:41;;;;;;;106.75;24.90;;;;;;;1.54;82.11;98383.06;1685920;83;21007;-62
2022/01/26 11:15:13;;;;;;;6.90;4.03;;;;;;;1.51;81.64;98381.39;1715404;83;20872;-60
2022/01/26 11:17:43;;;;;;;6.10;4.33;;;;;;;1.43;81.60;98375.09;1690266;82;21697;-59
2022/01/26 11:20:34;;;;;;;5.03;3.45;;;;;;;1.44;81.98;98378.03;1696904;82;20997;-58
2022/01/26 11:23:02;;;;;;;6.67;3.80;;;;;;;1.45;81.84;98367.75;1715820;81;21032;-61
2022/01/26 11:25:45;;;;;;;4.75;3.80;;;;;;;1.50;81.55;98377.13;1701059;83;20973;-60
2022/01/26 11:28:21;;;;;;;10.55;5.65;;;;;;;1.50;81.25;98374.48;1696485;83;21373;-59
2022/01/26 11:30:50;;;;;;;6.12;3.83;;;;;;;1.49;81.16;98368.39;1701603;82;21124;-61
2022/01/26 11:33:23;;;;;;;5.40;3.65;;;;;;;1.46;80.89;98374.11;1677780;82;20903;-62
2022/01/26 11:35:53;;;;;;;6.33;4.25;;;;;;;1.47;80.98;98360.41;1700543;82;21457;-59
2022/01/26 11:47:19;;;;;;;7.28;5.47;;;;;;;1.85;79.78;98347.69;1636222;83;21083;-57
2022/01/26 11:55:00;;;;;;;8.80;6.55;;;;;;;2.25;78.21;98347.37;1717900;83;21409;-61
2022/01/26 11:57:48;;;;;;;8.00;6.33;;;;;;;2.24;77.79;98347.07;1716841;82;21139;-59
2022/01/26 12:00:23;;;;;;;10.95;7.15;;;;;;;2.26;77.59;98346.86;1704669;82;20913;-57
2022/01/26 12:05:19;;;;;;;9.90;7.45;;;;;;;2.27;76.43;98340.02;1698483;82;20901;-62
2022/01/26 12:07:54;;;;;;;7.75;5.00;;;;;;;2.28;76.49;98342.15;1696203;83;20876;-59
2022/01/26 12:10:28;;;;;;;6.40;4.65;;;;;;;2.23;75.90;98337.55;1706025;83;20937;-59
2022/01/26 12:13:06;;;;;;;7.15;4.60;;;;;;;2.15;75.34;98343.66;1705466;82;20995;-62
2022/01/26 12:15:44;;;;;;;6.87;4.25;;;;;;;2.07;75.25;98338.22;1704596;82;21012;-61
2022/01/26 12:18:21;;;;;;;7.17;4.67;;;;;;;2.00;74.76;98333.55;1711654;83;21046;-63
2022/01/26 12:34:47;;;;;;;10.25;5.12;;;;;;;2.03;74.39;98338.36;1709661;83;20991;-60
2022/01/26 12:37:37;;;;;;;6.45;4.47;;;;;;;2.04;74.14;98333.38;1719025;82;21226;-62
2022/01/26 12:45:23;;;;;;;8.95;5.50;;;;;;;1.96;74.42;98353.52;1697189;83;20889;-62
2022/01/26 12:47:52;;;;;;;8.05;5.42;;;;;;;1.97;74.74;98356.45;1696795;83;20956;-60
2022/01/26 12:50:19;;;;;;;7.78;5.53;;;;;;;1.89;74.53;98350.97;1691517;83;21088;-60
2022/01/26 12:52:49;;;;;;;7.53;5.12;;;;;;;1.80;74.93;98347.56;1689266;83;21574;-60
2022/01/26 12:55:26;;;;;;;9.73;6.53;;;;;;;1.72;75.32;98343.39;1693532;83;21445;-58
2022/01/26 12:57:55;;;;;;;9.80;5.42;;;;;;;1.66;75.62;98357.52;1719294;83;20957;-62
2022/01/26 13:00:24;;;;;;;9.68;6.42;;;;;;;1.58;75.78;98356.49;1708441;82;21087;-62
2022/01/26 13:02:52;;;;;;;10.38;6.45;;;;;;;1.51;75.60;98356.31;1708582;82;21127;-64
2022/01/26 13:05:25;;;;;;;9.65;7.05;;;;;;;1.41;75.89;98350.75;1704737;82;20961;-60
2022/01/26 13:08:06;;;;;;;9.33;6.15;;;;;;;1.36;75.98;98354.87;1711486;83;20945;-63
2022/01/26 13:10:33;;;;;;;11.60;6.97;;;;;;;1.31;76.08;98360.01;1693705;83;21013;-61
2022/01/26 13:13:16;;;;;;;10.50;6.28;;;;;;;1.28;76.17;98354.35;1712597;83;21607;-64
2022/01/26 13:15:52;;;;;;;10.82;7.42;;;;;;;1.26;76.40;98351.14;1696958;83;21123;-63
2022/01/26 13:18:48;;;;;;;12.75;8.48;;;;;;;1.24;76.37;98346.59;1710743;83;21412;-61
2022/01/26 13:21:32;;;;;;;12.40;8.73;;;;;;;1.23;76.29;98344.47;1715001;83;21001;-64
2022/01/26 13:24:04;;;;;;;8.68;6.58;;;;;;;1.23;76.53;98344.97;1686469;83;21503;-62
2022/01/26 13:29:06;;;;;;;8.23;5.45;;;;;;;1.23;76.44;98352.38;1670722;84;21081;-63
2022/01/26 13:31:59;;;;;;;11.38;5.50;;;;;;;1.24;76.44;98350.05;1667599;84;21543;-59
2022/01/26 13:45:04;;;;;;;8.45;6.10;;;;;;;1.19;76.95;98347.77;1675319;83;20932;-61
2022/01/26 13:47:27;;;;;;;12.47;6.55;;;;;;;1.17;76.90;98345.37;1676326;85;21521;-63
2022/01/26 14:00:30;;;;;;;8.15;5.97;;;;;;;1.14;77.40;98344.48;1664105;85;21206;-63
2022/01/26 14:03:00;;;;;;;8.98;6.00;;;;;;;1.14;77.46;98348.44;1670616;85;21106;-67
2022/01/26 14:05:26;;;;;;;9.10;6.42;;;;;;;1.11;77.50;98347.55;1678949;85;21014;-61
2022/01/26 14:07:56;;;;;;;8.28;5.83;;;;;;;1.04;77.57;98348.14;1669988;85;21141;-63
2022/01/26 14:10:23;;;;;;;9.13;6.50;;;;;;;1.03;77.83;98348.38;1676117;84;21141;-59
2022/01/26 14:12:50;;;;;;;9.90;7.22;;;;;;;1.00;77.82;98345.66;1678177;85;21077;-61
2022/01/26 14:15:38;;;;;;;10.60;8.03;;;;;;;0.98;78.00;98343.77;1676918;84;21050;-65
2022/01/26 14:25:30;;;;;;;11.22;7.50;;;;;;;0.98;78.37;98345.08;1677010;85;21446;-60
2022/01/26 14:28:05;;;;;;;9.73;7.05;;;;;;;0.95;78.51;98344.19;1682106;85;21486;-62
2022/01/26 14:30:41;;;;;;;12.73;9.28;;;;;;;0.94;78.55;98339.15;1679141;84;20951;-63
2022/01/26 14:54:49;;;;;;;;;;;;;;;0.86;79.31;98324.92;1703867;83;20923;-63
2022/01/26 15:30:18;;;;;;;15.30;8.95;;;;;;;0.73;81.28;98326.40;1674372;82;21117;-60
2022/01/26 15:40:47;;;;;;;23.32;12.35;;;;;;;0.68;82.06;98331.02;1711350;83;21144;-58